Time;durP1;ratioP1;P1;durP2;ratioP2;P2;SDS_P1;SDS_P2;PMS_P1;PMS_P2;Temp;Humidity;BMP_temperature;BMP_pressure;BME280_temperature;BME280_humidity;BME280_pressure;Samples;Min_cycle;Max_cycle;Signal;HPM_P1;HPM_P2
2023/06/01 00:01:40;;;;;;;4.27;3.80;;;;;;;;;;4993738;28;20982;-57
2023/06/01 00:04:07;;;;;;;4.13;3.67;;;;;;;;;;4993469;28;20417;-58
2023/06/01 00:06:38;;;;;;;4.40;3.70;;;;;;;;;;4993551;28;20527;-58
2023/06/01 00:09:04;;;;;;;4.17;3.50;;;;;;;;;;4993741;28;20430;-58
2023/06/01 00:11:30;;;;;;;10.13;3.30;;;;;;;;;;4992657;28;20429;-58
2023/06/01 00:13:56;;;;;;;6.20;3.27;;;;;;;;;;4992871;28;20432;-58
2023/06/01 00:16:22;;;;;;;4.23;3.70;;;;;;;;;;4993117;28;20480;-58
2023/06/01 00:18:49;;;;;;;7.10;3.80;;;;;;;;;;4993312;28;20460;-58
2023/06/01 00:21:17;;;;;;;3.77;3.57;;;;;;;;;;4993415;28;20417;-57
2023/06/01 00:23:43;;;;;;;4.20;3.63;;;;;;;;;;4993098;28;20417;-58
2023/06/01 00:26:09;;;;;;;6.83;3.40;;;;;;;;;;4992872;28;20807;-58
2023/06/01 00:28:35;;;;;;;3.73;3.30;;;;;;;;;;4993130;28;20469;-57
2023/06/01 00:31:04;;;;;;;9.50;3.77;;;;;;;;;;4993515;28;20983;-57
2023/06/01 00:33:30;;;;;;;3.77;3.53;;;;;;;;;;4993209;28;20489;-58
2023/06/01 00:35:56;;;;;;;4.10;3.80;;;;;;;;;;4993160;28;20432;-58
2023/06/01 00:38:22;;;;;;;4.63;4.23;;;;;;;;;;4992324;28;20413;-58
2023/06/01 00:40:51;;;;;;;6.60;4.00;;;;;;;;;;4991633;28;20471;-57
2023/06/01 00:43:19;;;;;;;5.63;4.07;;;;;;;;;;4992069;28;20439;-57
2023/06/01 00:45:45;;;;;;;3.63;3.37;;;;;;;;;;4990317;28;20488;-57
2023/06/01 00:48:12;;;;;;;3.60;3.30;;;;;;;;;;4991696;28;20408;-58
2023/06/01 00:50:40;;;;;;;11.00;4.63;;;;;;;;;;4992962;28;20204;-57
2023/06/01 00:53:07;;;;;;;4.93;3.87;;;;;;;;;;4992571;28;20427;-57
2023/06/01 00:55:34;;;;;;;4.10;3.70;;;;;;;;;;4992818;28;20413;-57
2023/06/01 00:58:01;;;;;;;5.00;4.50;;;;;;;;;;4993091;28;20493;-58
2023/06/01 01:00:27;;;;;;;3.97;3.53;;;;;;;;;;4992729;28;20503;-58
2023/06/01 01:02:53;;;;;;;8.53;3.87;;;;;;;;;;4991268;28;20431;-58
2023/06/01 01:05:20;;;;;;;4.27;3.77;;;;;;;;;;4992735;28;20468;-58
2023/06/01 01:08:05;;;;;;;4.27;4.00;;;;;;;;;;4992764;28;20479;-58
2023/06/01 01:10:38;;;;;;;4.20;3.80;;;;;;;;;;4992543;28;20843;-58
2023/06/01 01:13:07;;;;;;;4.43;4.03;;;;;;;;;;4992502;28;20490;-58
2023/06/01 01:15:41;;;;;;;3.57;3.37;;;;;;;;;;4992779;28;20436;-58
2023/06/01 01:18:13;;;;;;;6.43;4.20;;;;;;;;;;4992626;28;20481;-58
2023/06/01 01:20:44;;;;;;;5.50;4.47;;;;;;;;;;4992791;28;20416;-57
2023/06/01 01:23:24;;;;;;;7.10;3.77;;;;;;;;;;4992638;28;20443;-58
2023/06/01 01:26:00;;;;;;;5.03;4.20;;;;;;;;;;4992193;28;20428;-57
2023/06/01 01:28:33;;;;;;;3.87;3.60;;;;;;;;;;4992687;28;20511;-57
2023/06/01 01:31:00;;;;;;;3.80;3.60;;;;;;;;;;4992499;28;20845;-57
2023/06/01 01:33:27;;;;;;;11.17;3.63;;;;;;;;;;4992438;28;20481;-58
2023/06/01 01:35:53;;;;;;;7.30;4.17;;;;;;;;;;4991598;28;20428;-57
2023/06/01 01:38:19;;;;;;;4.47;3.87;;;;;;;;;;4992745;28;20490;-57
2023/06/01 01:40:45;;;;;;;5.73;4.33;;;;;;;;;;4993023;28;20501;-57
2023/06/01 01:43:11;;;;;;;4.70;4.30;;;;;;;;;;4992108;28;20431;-58
2023/06/01 01:45:48;;;;;;;4.60;4.30;;;;;;;;;;4992669;28;20425;-57
2023/06/01 01:48:19;;;;;;;6.33;3.87;;;;;;;;;;4992415;28;20418;-57
2023/06/01 01:50:57;;;;;;;13.03;4.30;;;;;;;;;;4992279;28;20969;-57
2023/06/01 01:53:27;;;;;;;5.10;4.53;;;;;;;;;;4992577;28;20505;-57
2023/06/01 01:55:53;;;;;;;4.13;3.60;;;;;;;;;;4992603;28;20415;-57
2023/06/01 01:58:20;;;;;;;4.97;4.53;;;;;;;;;;4992340;28;20431;-57
2023/06/01 02:00:49;;;;;;;4.90;4.30;;;;;;;;;;4995447;28;20414;-57
2023/06/01 02:03:16;;;;;;;5.43;4.30;;;;;;;;;;4995767;28;20433;-57
2023/06/01 02:05:42;;;;;;;5.13;4.13;;;;;;;;;;4995599;28;20467;-57
2023/06/01 02:08:11;;;;;;;8.33;4.40;;;;;;;;;;4995708;28;20442;-57
2023/06/01 02:10:37;;;;;;;4.70;4.40;;;;;;;;;;4995850;28;20419;-57
2023/06/01 02:13:03;;;;;;;4.73;4.33;;;;;;;;;;4995601;28;20436;-57
2023/06/01 02:15:29;;;;;;;4.67;4.37;;;;;;;;;;4995167;28;20496;-57
2023/06/01 02:17:55;;;;;;;4.70;4.30;;;;;;;;;;4995673;28;21104;-57
2023/06/01 02:20:21;;;;;;;4.30;3.90;;;;;;;;;;4995713;28;20415;-57
2023/06/01 02:22:50;;;;;;;4.80;4.47;;;;;;;;;;4995458;28;20433;-57
2023/06/01 02:25:19;;;;;;;8.27;4.00;;;;;;;;;;4995286;28;20485;-57
2023/06/01 02:27:45;;;;;;;5.20;4.80;;;;;;;;;;4995399;28;20415;-57
2023/06/01 02:30:11;;;;;;;13.83;4.13;;;;;;;;;;4996055;28;20443;-57
2023/06/01 02:32:40;;;;;;;4.20;3.90;;;;;;;;;;4995616;28;20422;-57
2023/06/01 02:35:06;;;;;;;4.70;4.37;;;;;;;;;;4995091;28;20489;-57
2023/06/01 02:37:32;;;;;;;4.93;4.57;;;;;;;;;;4978358;28;20984;-58
2023/06/01 02:39:58;;;;;;;8.83;4.73;;;;;;;;;;4995685;28;20429;-57
2023/06/01 02:42:24;;;;;;;9.93;4.60;;;;;;;;;;4995240;28;20474;-57
2023/06/01 02:44:50;;;;;;;4.93;4.20;;;;;;;;;;4995102;28;20448;-57
2023/06/01 02:47:16;;;;;;;21.33;4.77;;;;;;;;;;4994684;28;20500;-57
2023/06/01 02:49:42;;;;;;;7.30;4.67;;;;;;;;;;4993884;28;20445;-57
2023/06/01 02:52:08;;;;;;;4.30;4.00;;;;;;;;;;4994420;28;20471;-57
2023/06/01 02:54:34;;;;;;;4.90;4.60;;;;;;;;;;4995101;28;20417;-57
2023/06/01 02:57:03;;;;;;;7.53;4.33;;;;;;;;;;4995169;28;20823;-57
2023/06/01 02:59:28;;;;;;;4.87;4.53;;;;;;;;;;4995063;28;20563;-57
2023/06/01 03:01:56;;;;;;;4.63;4.37;;;;;;;;;;4995277;28;20493;-57
2023/06/01 03:04:22;;;;;;;5.47;4.97;;;;;;;;;;4994076;28;20754;-57
2023/06/01 03:06:48;;;;;;;7.07;5.13;;;;;;;;;;4994423;28;20544;-57
2023/06/01 03:09:15;;;;;;;6.00;5.00;;;;;;;;;;4994706;28;20410;-57
2023/06/01 03:11:41;;;;;;;5.53;5.03;;;;;;;;;;4995058;28;20413;-57
2023/06/01 03:14:08;;;;;;;6.37;4.63;;;;;;;;;;4993855;28;21004;-57
2023/06/01 03:16:35;;;;;;;5.50;4.63;;;;;;;;;;4994812;28;20564;-57
2023/06/01 03:19:01;;;;;;;4.90;4.60;;;;;;;;;;4994866;28;20413;-57
2023/06/01 03:21:43;;;;;;;5.30;5.00;;;;;;;;;;4994949;28;20434;-57
2023/06/01 03:24:12;;;;;;;4.87;4.40;;;;;;;;;;4994599;28;20942;-57
2023/06/01 03:26:38;;;;;;;9.83;4.83;;;;;;;;;;4994779;28;20457;-58
2023/06/01 03:29:04;;;;;;;5.73;4.97;;;;;;;;;;4994729;28;20430;-57
2023/06/01 03:31:30;;;;;;;7.20;5.30;;;;;;;;;;4994409;28;20417;-57
2023/06/01 03:33:56;;;;;;;7.90;5.70;;;;;;;;;;4994504;28;20512;-57
2023/06/01 03:36:22;;;;;;;6.03;5.53;;;;;;;;;;4994182;28;20857;-57
2023/06/01 03:38:48;;;;;;;5.10;4.80;;;;;;;;;;4994646;28;20414;-57
2023/06/01 03:41:14;;;;;;;7.37;5.43;;;;;;;;;;4994495;28;20434;-57
2023/06/01 03:43:43;;;;;;;5.60;5.03;;;;;;;;;;4994260;28;20896;-57
2023/06/01 03:46:08;;;;;;;4.83;4.53;;;;;;;;;;4994159;28;20430;-57
2023/06/01 03:48:47;;;;;;;5.17;4.77;;;;;;;;;;4994140;28;20483;-57
2023/06/01 03:51:19;;;;;;;7.10;4.67;;;;;;;;;;4993004;28;20444;-57
2023/06/01 03:53:48;;;;;;;5.50;5.10;;;;;;;;;;4994484;28;20485;-57
2023/06/01 03:56:15;;;;;;;7.50;4.40;;;;;;;;;;4993647;28;21030;-58
2023/06/01 03:58:41;;;;;;;8.50;5.03;;;;;;;;;;4994071;28;20456;-57
2023/06/01 04:01:11;;;;;;;7.63;5.00;;;;;;;;;;4994087;28;20517;-57
2023/06/01 04:03:38;;;;;;;4.77;4.47;;;;;;;;;;4992644;28;20517;-57
2023/06/01 04:06:11;;;;;;;5.57;4.47;;;;;;;;;;4993418;28;20817;-57
2023/06/01 04:08:42;;;;;;;5.30;4.73;;;;;;;;;;4993974;28;20433;-57
2023/06/01 04:11:08;;;;;;;8.63;5.07;;;;;;;;;;4994116;28;20443;-57
2023/06/01 04:13:36;;;;;;;5.00;4.50;;;;;;;;;;4993226;28;20441;-57
2023/06/01 04:16:03;;;;;;;5.20;4.60;;;;;;;;;;4993253;28;20428;-57
2023/06/01 04:18:30;;;;;;;5.00;4.60;;;;;;;;;;4993521;28;20410;-57
2023/06/01 04:20:56;;;;;;;17.47;5.20;;;;;;;;;;4992796;28;20434;-57
2023/06/01 04:23:22;;;;;;;5.07;4.60;;;;;;;;;;4993516;28;20826;-57
2023/06/01 04:25:51;;;;;;;4.83;4.47;;;;;;;;;;4993825;28;20436;-57
2023/06/01 04:28:17;;;;;;;7.67;4.20;;;;;;;;;;4993249;28;20505;-57
2023/06/01 04:30:47;;;;;;;8.87;4.70;;;;;;;;;;4993937;28;20430;-57
2023/06/01 04:33:13;;;;;;;4.50;4.10;;;;;;;;;;4993776;28;20469;-58
2023/06/01 04:35:39;;;;;;;7.30;3.80;;;;;;;;;;4993113;28;20406;-58
2023/06/01 04:38:05;;;;;;;8.57;4.23;;;;;;;;;;4992199;28;20967;-58
2023/06/01 04:40:33;;;;;;;5.10;4.60;;;;;;;;;;4993278;28;20422;-58
2023/06/01 04:43:02;;;;;;;11.23;4.57;;;;;;;;;;4993605;28;20552;-58
2023/06/01 04:45:33;;;;;;;7.27;4.40;;;;;;;;;;4993399;28;20422;-57
2023/06/01 04:47:59;;;;;;;10.90;5.70;;;;;;;;;;4993289;28;20501;-57
2023/06/01 04:50:28;;;;;;;4.40;4.00;;;;;;;;;;4992001;28;20817;-57
2023/06/01 04:52:55;;;;;;;5.00;4.30;;;;;;;;;;4992955;28;20524;-57
2023/06/01 04:55:21;;;;;;;8.90;4.23;;;;;;;;;;4993128;28;20529;-57
2023/06/01 04:57:47;;;;;;;6.50;4.00;;;;;;;;;;4993318;28;20463;-57
2023/06/01 05:00:14;;;;;;;5.97;5.00;;;;;;;;;;4992864;28;20497;-57
2023/06/01 05:02:42;;;;;;;10.47;4.47;;;;;;;;;;4993211;28;20788;-57
2023/06/01 05:05:08;;;;;;;4.60;4.20;;;;;;;;;;4992714;28;20411;-57
2023/06/01 05:07:38;;;;;;;4.53;4.13;;;;;;;;;;4991786;28;20984;-58
2023/06/01 05:10:06;;;;;;;5.13;4.50;;;;;;;;;;4993469;28;20558;-58
2023/06/01 05:12:34;;;;;;;6.03;4.23;;;;;;;;;;4992347;28;20823;-57
2023/06/01 05:15:01;;;;;;;4.40;4.07;;;;;;;;;;4992932;28;20539;-57
2023/06/01 05:17:27;;;;;;;4.80;4.30;;;;;;;;;;4992487;28;20616;-57
2023/06/01 05:19:53;;;;;;;4.70;4.13;;;;;;;;;;4991715;28;20520;-57
2023/06/01 05:22:19;;;;;;;6.53;4.47;;;;;;;;;;4992762;28;20416;-57
2023/06/01 05:24:45;;;;;;;9.83;4.13;;;;;;;;;;4992649;28;20427;-57
2023/06/01 05:27:11;;;;;;;5.73;4.40;;;;;;;;;;4993002;28;20444;-57
2023/06/01 05:29:37;;;;;;;18.23;4.60;;;;;;;;;;4992813;28;20926;-57
2023/06/01 05:32:03;;;;;;;9.73;4.70;;;;;;;;;;4993797;28;20423;-57
2023/06/01 05:34:29;;;;;;;11.93;4.83;;;;;;;;;;4996555;28;20422;-57
2023/06/01 05:36:55;;;;;;;9.80;4.03;;;;;;;;;;4996426;28;21028;-57
2023/06/01 05:39:27;;;;;;;4.00;3.70;;;;;;;;;;4996293;28;20444;-57
2023/06/01 05:41:57;;;;;;;5.70;3.90;;;;;;;;;;4996815;28;20476;-57
2023/06/01 05:44:24;;;;;;;4.53;4.13;;;;;;;;;;4996423;28;20446;-57
2023/06/01 05:46:51;;;;;;;7.40;3.77;;;;;;;;;;4995937;28;20439;-57
2023/06/01 05:49:17;;;;;;;6.93;3.70;;;;;;;;;;4996168;28;20457;-57
2023/06/01 05:51:43;;;;;;;6.87;4.67;;;;;;;;;;4995823;28;20447;-59
2023/06/01 05:54:10;;;;;;;10.27;4.57;;;;;;;;;;4996362;28;20434;-56
2023/06/01 05:56:42;;;;;;;14.30;4.43;;;;;;;;;;4996135;28;20508;-58
2023/06/01 05:59:08;;;;;;;4.93;4.57;;;;;;;;;;4996402;28;20392;-55
2023/06/01 06:01:35;;;;;;;4.10;3.80;;;;;;;;;;4993862;28;20842;-55
2023/06/01 06:04:04;;;;;;;4.43;4.03;;;;;;;;;;4994522;28;20799;-55
2023/06/01 06:06:30;;;;;;;10.20;3.90;;;;;;;;;;4995956;28;20416;-55
2023/06/01 06:08:56;;;;;;;6.90;4.87;;;;;;;;;;4996426;28;20463;-56
2023/06/01 06:11:22;;;;;;;6.37;4.70;;;;;;;;;;4995821;28;20425;-56
2023/06/01 06:13:52;;;;;;;7.37;4.73;;;;;;;;;;4995751;28;20448;-56
2023/06/01 06:16:18;;;;;;;6.03;4.30;;;;;;;;;;4994795;28;20467;-56
2023/06/01 06:18:44;;;;;;;11.17;4.63;;;;;;;;;;4995859;28;20512;-56
2023/06/01 06:21:12;;;;;;;4.37;3.97;;;;;;;;;;4995248;28;20901;-56
2023/06/01 06:23:39;;;;;;;8.23;4.20;;;;;;;;;;4994461;28;20459;-56
2023/06/01 06:26:06;;;;;;;7.20;4.03;;;;;;;;;;4996031;28;20949;-56
2023/06/01 06:28:32;;;;;;;14.20;4.97;;;;;;;;;;4995798;28;20452;-55
2023/06/01 06:30:58;;;;;;;5.23;4.70;;;;;;;;;;4995681;28;20441;-56
2023/06/01 06:33:26;;;;;;;5.33;4.63;;;;;;;;;;4995470;28;20895;-55
2023/06/01 06:35:53;;;;;;;9.37;5.50;;;;;;;;;;4995845;28;20436;-55
2023/06/01 06:38:19;;;;;;;6.03;4.30;;;;;;;;;;4996751;28;20475;-57
2023/06/01 06:40:45;;;;;;;5.03;4.03;;;;;;;;;;5013558;28;20938;-57
2023/06/01 06:43:13;;;;;;;5.00;4.50;;;;;;;;;;5012361;28;20452;-57
2023/06/01 06:45:39;;;;;;;4.80;4.40;;;;;;;;;;5014284;28;20820;-57
2023/06/01 06:48:05;;;;;;;5.67;5.17;;;;;;;;;;5013359;28;20806;-58
2023/06/01 06:50:34;;;;;;;7.00;4.73;;;;;;;;;;5014935;28;20408;-56
2023/06/01 06:53:02;;;;;;;10.73;5.40;;;;;;;;;;5014608;28;20430;-56
2023/06/01 06:55:29;;;;;;;6.00;4.40;;;;;;;;;;5015121;28;20436;-56
2023/06/01 06:57:58;;;;;;;7.93;4.80;;;;;;;;;;5014807;28;20500;-57
2023/06/01 07:00:27;;;;;;;7.20;4.60;;;;;;;;;;5014812;28;20767;-57
2023/06/01 07:02:55;;;;;;;5.73;5.13;;;;;;;;;;5014899;28;20445;-56
2023/06/01 07:05:21;;;;;;;14.50;4.90;;;;;;;;;;5014726;28;20409;-56
2023/06/01 07:07:49;;;;;;;5.70;5.30;;;;;;;;;;5014514;28;20475;-56
2023/06/01 07:10:15;;;;;;;6.73;5.17;;;;;;;;;;5014471;28;20422;-65
2023/06/01 07:12:41;;;;;;;6.20;5.30;;;;;;;;;;5014134;28;20462;-62
2023/06/01 07:15:08;;;;;;;8.57;4.97;;;;;;;;;;5014708;28;20483;-59
2023/06/01 07:17:34;;;;;;;10.80;5.27;;;;;;;;;;5014471;28;20986;-62
2023/06/01 07:20:01;;;;;;;7.77;6.07;;;;;;;;;;5014067;28;20470;-60
2023/06/01 07:22:27;;;;;;;11.83;4.40;;;;;;;;;;5014363;28;20449;-61
2023/06/01 07:24:53;;;;;;;7.93;4.63;;;;;;;;;;5014687;28;20423;-61
2023/06/01 07:27:20;;;;;;;6.43;5.20;;;;;;;;;;5014341;28;20448;-62
2023/06/01 07:29:46;;;;;;;6.23;5.57;;;;;;;;;;5014228;28;20919;-61
2023/06/01 07:32:15;;;;;;;13.90;5.27;;;;;;;;;;5014530;28;20442;-62
2023/06/01 07:34:41;;;;;;;8.63;6.07;;;;;;;;;;5014172;28;20447;-65
2023/06/01 07:37:07;;;;;;;8.33;5.70;;;;;;;;;;5012792;28;20504;-61
2023/06/01 07:39:33;;;;;;;7.97;5.33;;;;;;;;;;5014576;28;20394;-60
2023/06/01 07:41:59;;;;;;;7.93;4.90;;;;;;;;;;5013839;28;20418;-63
2023/06/01 07:44:25;;;;;;;5.20;4.70;;;;;;;;;;5013822;28;20933;-61
2023/06/01 07:46:51;;;;;;;6.20;4.57;;;;;;;;;;5013624;28;20444;-62
2023/06/01 07:49:17;;;;;;;6.83;4.40;;;;;;;;;;5013834;28;20412;-62
2023/06/01 07:51:44;;;;;;;7.33;4.63;;;;;;;;;;5013774;28;20427;-61
2023/06/01 07:54:10;;;;;;;11.73;5.10;;;;;;;;;;5013441;28;20419;-64
2023/06/01 07:56:36;;;;;;;6.63;6.20;;;;;;;;;;5012220;28;20473;-60
2023/06/01 07:59:02;;;;;;;16.40;10.90;;;;;;;;;;5013354;28;20425;-61
2023/06/01 08:01:29;;;;;;;11.73;6.37;;;;;;;;;;5013775;28;20444;-63
2023/06/01 08:03:56;;;;;;;7.93;6.13;;;;;;;;;;5013527;28;20416;-61
2023/06/01 08:06:25;;;;;;;16.63;10.03;;;;;;;;;;5013810;28;20764;-62
2023/06/01 08:08:51;;;;;;;13.53;8.70;;;;;;;;;;5013283;28;20420;-62
2023/06/01 08:11:21;;;;;;;9.60;8.30;;;;;;;;;;5013441;28;20506;-62
2023/06/01 08:13:47;;;;;;;21.10;9.47;;;;;;;;;;5013418;28;20528;-64
2023/06/01 08:16:16;;;;;;;10.20;6.10;;;;;;;;;;5012078;28;20431;-62
2023/06/01 08:18:42;;;;;;;8.80;5.00;;;;;;;;;;5013485;28;20495;-63
2023/06/01 08:21:10;;;;;;;32.83;21.07;;;;;;;;;;5013256;28;20421;-63
2023/06/01 08:23:38;;;;;;;6.70;5.30;;;;;;;;;;5013175;28;20758;-63
2023/06/01 08:26:04;;;;;;;13.77;9.23;;;;;;;;;;5012662;28;20426;-63
2023/06/01 08:28:35;;;;;;;5.57;4.70;;;;;;;;;;5012846;28;20442;-63
2023/06/01 08:31:03;;;;;;;6.43;4.30;;;;;;;;;;5012468;28;20411;-62
2023/06/01 08:33:29;;;;;;;12.43;4.13;;;;;;;;;;5012436;28;20499;-62
2023/06/01 08:35:58;;;;;;;5.47;4.87;;;;;;;;;;5012664;28;20463;-62
2023/06/01 08:38:28;;;;;;;6.03;4.07;;;;;;;;;;5012832;28;20963;-63
2023/06/01 08:40:54;;;;;;;12.73;4.20;;;;;;;;;;5012860;28;20893;-63
2023/06/01 08:43:21;;;;;;;4.37;4.10;;;;;;;;;;5012964;28;20965;-63
2023/06/01 08:45:51;;;;;;;9.73;3.90;;;;;;;;;;5012843;28;20416;-63
2023/06/01 08:48:18;;;;;;;12.10;4.47;;;;;;;;;;5012778;28;20785;-63
2023/06/01 08:50:51;;;;;;;5.90;4.77;;;;;;;;;;5012809;28;20412;-63
2023/06/01 08:53:21;;;;;;;9.73;4.70;;;;;;;;;;4994988;28;20455;-63
2023/06/01 08:55:51;;;;;;;5.43;4.50;;;;;;;;;;5012765;28;20427;-63
2023/06/01 08:58:17;;;;;;;12.43;4.57;;;;;;;;;;5012502;28;20475;-63
2023/06/01 09:00:43;;;;;;;4.83;4.47;;;;;;;;;;5012918;28;20764;-62
2023/06/01 09:03:12;;;;;;;8.10;3.80;;;;;;;;;;5012470;28;20913;-61
2023/06/01 09:05:39;;;;;;;4.17;3.77;;;;;;;;;;5012956;28;20473;-62
2023/06/01 09:08:08;;;;;;;12.13;3.80;;;;;;;;;;5011791;28;20436;-62
2023/06/01 09:10:34;;;;;;;6.03;4.10;;;;;;;;;;5011137;28;20424;-61
2023/06/01 09:13:00;;;;;;;14.00;4.17;;;;;;;;;;5011963;28;20444;-62
2023/06/01 09:15:27;;;;;;;4.43;3.70;;;;;;;;;;5010831;28;20448;-62
2023/06/01 09:18:07;;;;;;;15.43;4.33;;;;;;;;;;5012273;28;20812;-62
2023/06/01 09:20:33;;;;;;;4.53;4.00;;;;;;;;;;5012221;28;20416;-61
2023/06/01 09:23:01;;;;;;;6.67;4.37;;;;;;;;;;5012698;28;20412;-61
2023/06/01 09:25:28;;;;;;;5.53;3.90;;;;;;;;;;5012423;28;20822;-61
2023/06/01 09:27:54;;;;;;;5.67;3.87;;;;;;;;;;5012171;28;20423;-61
2023/06/01 09:30:21;;;;;;;4.47;4.07;;;;;;;;;;5011730;28;20465;-61
2023/06/01 09:32:50;;;;;;;15.67;4.33;;;;;;;;;;5012423;28;20473;-61
2023/06/01 09:35:17;;;;;;;6.43;3.83;;;;;;;;;;5012174;28;20472;-61
2023/06/01 09:37:55;;;;;;;7.10;4.43;;;;;;;;;;5012574;28;20468;-60
2023/06/01 09:40:21;;;;;;;4.43;4.07;;;;;;;;;;5012533;28;20406;-61
2023/06/01 09:42:49;;;;;;;8.43;4.00;;;;;;;;;;5011830;28;20898;-61
2023/06/01 09:45:17;;;;;;;17.37;4.20;;;;;;;;;;5011196;28;20746;-60
2023/06/01 09:47:43;;;;;;;6.13;4.30;;;;;;;;;;5010751;28;20426;-61
2023/06/01 09:50:09;;;;;;;8.83;4.37;;;;;;;;;;5012331;28;20439;-61
2023/06/01 09:52:35;;;;;;;8.80;4.10;;;;;;;;;;5012148;28;20417;-61
2023/06/01 09:55:11;;;;;;;6.20;4.07;;;;;;;;;;5010064;28;20434;-61
2023/06/01 09:57:37;;;;;;;7.70;4.50;;;;;;;;;;5011695;28;20471;-60
2023/06/01 10:00:05;;;;;;;4.83;4.43;;;;;;;;;;5012455;28;20479;-60
2023/06/01 10:02:33;;;;;;;4.70;3.77;;;;;;;;;;5012235;28;20458;-60
2023/06/01 10:04:59;;;;;;;4.70;4.30;;;;;;;;;;5011804;28;20519;-61
2023/06/01 10:07:30;;;;;;;4.77;4.17;;;;;;;;;;5010942;28;20421;-61
2023/06/01 10:09:58;;;;;;;5.27;4.77;;;;;;;;;;5012217;28;20459;-59
2023/06/01 10:12:25;;;;;;;6.53;4.70;;;;;;;;;;5011234;28;20453;-61
2023/06/01 10:14:54;;;;;;;5.73;4.33;;;;;;;;;;5011598;28;20413;-58
2023/06/01 10:17:20;;;;;;;5.80;4.07;;;;;;;;;;5011621;28;20500;-60
2023/06/01 10:19:49;;;;;;;4.93;4.03;;;;;;;;;;5013418;28;20450;-60
2023/06/01 10:22:16;;;;;;;9.70;5.07;;;;;;;;;;5015453;28;20919;-60
2023/06/01 10:24:43;;;;;;;5.23;4.73;;;;;;;;;;5015134;28;20422;-60
2023/06/01 10:27:12;;;;;;;7.20;4.43;;;;;;;;;;5015056;28;20415;-60
2023/06/01 10:29:38;;;;;;;8.13;4.67;;;;;;;;;;5015556;28;20955;-60
2023/06/01 10:32:05;;;;;;;9.73;4.60;;;;;;;;;;5013717;28;20474;-60
2023/06/01 10:34:42;;;;;;;9.33;4.90;;;;;;;;;;5013457;28;20439;-60
2023/06/01 10:37:08;;;;;;;7.60;4.47;;;;;;;;;;5014776;28;20886;-60
2023/06/01 10:39:35;;;;;;;9.07;4.73;;;;;;;;;;5014867;28;20543;-60
2023/06/01 10:42:21;;;;;;;7.37;4.50;;;;;;;;;;5015200;28;20506;-60
2023/06/01 10:44:48;;;;;;;7.97;4.50;;;;;;;;;;5015036;28;20428;-60
2023/06/01 10:47:14;;;;;;;11.73;4.40;;;;;;;;;;4998176;28;20443;-60
2023/06/01 10:49:49;;;;;;;5.03;4.57;;;;;;;;;;5014856;28;20421;-59
2023/06/01 10:52:40;;;;;;;7.83;4.70;;;;;;;;;;5015180;28;20592;-60
2023/06/01 10:55:13;;;;;;;10.50;4.00;;;;;;;;;;5014897;28;20432;-59
2023/06/01 10:57:39;;;;;;;5.83;4.97;;;;;;;;;;5014421;28;20469;-59
2023/06/01 11:00:16;;;;;;;9.50;4.27;;;;;;;;;;5014795;28;20451;-59
2023/06/01 11:03:04;;;;;;;6.80;4.27;;;;;;;;;;5014533;28;20511;-60
2023/06/01 11:05:34;;;;;;;6.20;4.63;;;;;;;;;;5014343;28;20482;-60
2023/06/01 11:08:00;;;;;;;10.00;5.73;;;;;;;;;;5014203;28;20495;-60
2023/06/01 11:10:46;;;;;;;4.97;4.53;;;;;;;;;;5014515;28;20447;-60
2023/06/01 11:13:18;;;;;;;5.40;4.97;;;;;;;;;;5014438;28;20431;-60
2023/06/01 11:16:03;;;;;;;6.83;4.70;;;;;;;;;;5014552;28;20416;-60
2023/06/01 11:18:44;;;;;;;7.43;4.67;;;;;;;;;;5014018;28;20475;-61
2023/06/01 11:21:26;;;;;;;5.90;5.00;;;;;;;;;;5014294;28;20816;-59
2023/06/01 11:23:54;;;;;;;5.80;5.10;;;;;;;;;;5013805;28;20416;-60
2023/06/01 11:26:24;;;;;;;6.17;5.00;;;;;;;;;;5014405;28;20479;-60
2023/06/01 11:28:53;;;;;;;9.77;4.77;;;;;;;;;;5012481;28;20428;-60
2023/06/01 11:31:20;;;;;;;5.40;4.90;;;;;;;;;;5013705;28;20474;-59
2023/06/01 11:33:53;;;;;;;7.80;5.03;;;;;;;;;;5014298;28;20974;-60
2023/06/01 11:36:24;;;;;;;7.70;4.77;;;;;;;;;;5014131;28;20581;-60
2023/06/01 11:38:53;;;;;;;4.90;4.23;;;;;;;;;;5013947;28;20816;-60
2023/06/01 11:41:23;;;;;;;4.80;4.50;;;;;;;;;;5014036;28;20433;-60
2023/06/01 11:43:58;;;;;;;9.07;6.00;;;;;;;;;;5013685;28;20429;-60
2023/06/01 11:46:26;;;;;;;9.60;6.20;;;;;;;;;;5014129;28;20480;-63
2023/06/01 11:49:02;;;;;;;9.03;5.20;;;;;;;;;;5014221;28;20451;-60
2023/06/01 11:51:29;;;;;;;7.40;6.63;;;;;;;;;;5013698;28;20915;-58
2023/06/01 11:53:55;;;;;;;8.43;6.00;;;;;;;;;;5013469;28;20428;-60
2023/06/01 11:56:28;;;;;;;9.03;6.40;;;;;;;;;;5013334;28;20906;-61
2023/06/01 11:58:57;;;;;;;10.00;6.30;;;;;;;;;;5013654;28;20400;-60
2023/06/01 12:01:23;;;;;;;9.27;6.43;;;;;;;;;;5013427;28;20467;-61
2023/06/01 12:03:49;;;;;;;13.17;6.80;;;;;;;;;;5013529;28;20445;-60
2023/06/01 12:06:22;;;;;;;5.93;5.20;;;;;;;;;;5013310;28;20417;-60
2023/06/01 12:08:51;;;;;;;11.30;5.60;;;;;;;;;;5012949;28;20945;-62
2023/06/01 12:11:18;;;;;;;8.83;5.23;;;;;;;;;;5013417;28;20416;-62
2023/06/01 12:13:44;;;;;;;9.80;5.20;;;;;;;;;;5013631;28;20523;-60
2023/06/01 12:16:10;;;;;;;5.73;5.17;;;;;;;;;;5013283;28;20472;-60
2023/06/01 12:18:38;;;;;;;14.77;5.17;;;;;;;;;;5013914;28;20484;-60
2023/06/01 12:21:10;;;;;;;7.33;5.13;;;;;;;;;;5012981;28;20445;-65
2023/06/01 12:23:39;;;;;;;5.07;4.57;;;;;;;;;;5013508;28;20421;-66
2023/06/01 12:26:08;;;;;;;5.87;4.90;;;;;;;;;;5012111;28;20457;-62
2023/06/01 12:28:54;;;;;;;5.27;4.67;;;;;;;;;;5012884;28;20920;-62
2023/06/01 12:31:20;;;;;;;6.03;4.53;;;;;;;;;;5013051;28;20476;-60
2023/06/01 12:33:49;;;;;;;5.83;5.33;;;;;;;;;;5013244;28;20503;-64
2023/06/01 12:36:34;;;;;;;6.93;4.90;;;;;;;;;;5013100;28;20441;-64
2023/06/01 12:39:00;;;;;;;9.23;4.93;;;;;;;;;;5012709;28;20852;-65
2023/06/01 12:41:29;;;;;;;4.93;4.50;;;;;;;;;;5012509;28;20459;-65
2023/06/01 12:43:57;;;;;;;5.20;4.70;;;;;;;;;;5012838;28;20841;-66
2023/06/01 12:46:26;;;;;;;4.70;4.40;;;;;;;;;;5012911;28;20413;-64
2023/06/01 12:49:11;;;;;;;5.20;4.80;;;;;;;;;;5013052;28;20416;-62
2023/06/01 12:51:38;;;;;;;5.97;5.47;;;;;;;;;;5012856;28;20527;-66
2023/06/01 12:54:04;;;;;;;8.10;5.00;;;;;;;;;;5012672;28;20428;-67
2023/06/01 12:56:32;;;;;;;5.40;4.90;;;;;;;;;;5012737;28;20881;-62
2023/06/01 12:58:58;;;;;;;8.10;4.90;;;;;;;;;;5012931;28;20409;-61
2023/06/01 13:01:33;;;;;;;5.47;5.00;;;;;;;;;;5012359;28;20437;-62
2023/06/01 13:04:04;;;;;;;5.13;4.70;;;;;;;;;;5013330;28;20772;-61
2023/06/01 13:06:30;;;;;;;5.10;4.70;;;;;;;;;;5012807;28;20893;-61
2023/06/01 13:08:57;;;;;;;6.30;5.20;;;;;;;;;;5012866;28;20440;-63
2023/06/01 13:11:31;;;;;;;4.63;4.40;;;;;;;;;;5013015;28;20475;-59
2023/06/01 13:13:57;;;;;;;6.83;5.50;;;;;;;;;;5012677;28;20432;-60
2023/06/01 13:16:29;;;;;;;5.50;5.03;;;;;;;;;;5012796;28;20452;-60
2023/06/01 13:18:55;;;;;;;4.83;4.63;;;;;;;;;;5011467;28;20416;-60
2023/06/01 13:21:24;;;;;;;6.17;5.40;;;;;;;;;;5012685;28;20435;-61
2023/06/01 13:23:50;;;;;;;8.07;4.40;;;;;;;;;;5012908;28;20413;-64
2023/06/01 13:26:16;;;;;;;4.73;4.53;;;;;;;;;;5012709;28;20918;-61
2023/06/01 13:28:41;;;;;;;6.20;4.53;;;;;;;;;;5012684;28;20409;-61
2023/06/01 13:31:07;;;;;;;6.40;4.93;;;;;;;;;;5012946;28;20413;-59
2023/06/01 13:33:33;;;;;;;5.20;4.80;;;;;;;;;;5015614;28;20479;-60
2023/06/01 13:36:02;;;;;;;5.73;5.17;;;;;;;;;;5018146;28;20440;-60
2023/06/01 13:38:31;;;;;;;5.50;4.90;;;;;;;;;;5015216;28;20460;-60
2023/06/01 13:40:57;;;;;;;7.70;5.67;;;;;;;;;;5015825;28;20420;-60
2023/06/01 13:43:23;;;;;;;4.90;4.70;;;;;;;;;;5015354;28;20404;-60
2023/06/01 13:45:49;;;;;;;7.17;5.30;;;;;;;;;;5015470;28;20966;-59
2023/06/01 13:48:15;;;;;;;5.03;4.70;;;;;;;;;;5013695;28;20417;-60
2023/06/01 13:50:43;;;;;;;4.70;4.40;;;;;;;;;;5013074;28;20888;-61
2023/06/01 13:53:12;;;;;;;6.57;5.30;;;;;;;;;;5014023;28;20416;-61
2023/06/01 13:55:39;;;;;;;5.43;5.10;;;;;;;;;;5014762;28;20421;-61
2023/06/01 13:58:05;;;;;;;6.93;4.80;;;;;;;;;;5015856;28;20607;-60
2023/06/01 14:00:33;;;;;;;7.10;5.40;;;;;;;;;;5017216;28;20791;-61
2023/06/01 14:03:02;;;;;;;6.43;4.67;;;;;;;;;;5017434;28;20445;-61
2023/06/01 14:05:28;;;;;;;5.20;4.80;;;;;;;;;;5017277;28;20496;-61
2023/06/01 14:07:54;;;;;;;5.37;5.00;;;;;;;;;;5016077;28;20467;-61
2023/06/01 14:10:20;;;;;;;5.60;5.10;;;;;;;;;;5016045;28;20872;-61
2023/06/01 14:12:46;;;;;;;5.43;5.03;;;;;;;;;;5015693;28;20527;-60
2023/06/01 14:15:12;;;;;;;6.27;5.83;;;;;;;;;;5015749;28;20788;-61
2023/06/01 14:17:41;;;;;;;7.43;4.80;;;;;;;;;;5015745;28;20976;-61
2023/06/01 14:20:08;;;;;;;5.27;4.83;;;;;;;;;;5015798;28;20413;-61
2023/06/01 14:22:34;;;;;;;5.27;4.97;;;;;;;;;;5015721;28;20419;-61
2023/06/01 14:25:00;;;;;;;4.70;4.40;;;;;;;;;;5015486;28;20820;-61
2023/06/01 14:27:26;;;;;;;5.93;5.23;;;;;;;;;;5015623;28;20464;-61
2023/06/01 14:29:54;;;;;;;5.50;5.10;;;;;;;;;;5015443;28;20782;-61
2023/06/01 14:32:23;;;;;;;9.23;5.63;;;;;;;;;;5015623;28;20444;-63
2023/06/01 14:34:51;;;;;;;5.57;5.07;;;;;;;;;;5015728;28;20826;-60
2023/06/01 14:37:17;;;;;;;5.10;4.60;;;;;;;;;;5015226;28;20468;-65
2023/06/01 14:39:49;;;;;;;6.20;4.80;;;;;;;;;;5015258;28;20471;-64
2023/06/01 14:42:15;;;;;;;5.70;4.50;;;;;;;;;;5014189;28;20935;-65
2023/06/01 14:44:41;;;;;;;6.30;5.70;;;;;;;;;;5015254;28;20463;-65
2023/06/01 14:47:07;;;;;;;12.90;5.47;;;;;;;;;;5014844;28;20437;-65